Talowah, Mississippi
Current Conditions -  °F | °C
As of 5:53 AM on Saturday 27 Dec 2014 (Local Time) from KHBG Reporting Station
Overcast Overcast  
Wind Chill: 53°   Ceiling: 1600
Heat Index: 53°   Visibility: 10mi
Dew Point: 50°   Wind: 0mph
Humidity: 89%   Direction: NA
Pressure: 30.2"   Gusts: NA
Location:  31.0601°N, 89.4815°W
Report Text: KHBG 271153Z AUTO 00000KT 10SM BKN016 BKN026 OVC036 12/10 A3020 RMK AO2 RAE1059B15E50 SLP226 P0002 60002 70002 T01170100 10139 20117 53012
Loading
Personal Weather Stations






























Interactive Weather Map New forecast layout! Learn more

10-Day Weather Forecast

Advertisements
Track Severe Weather on mobile